createdAt,value
2016-05-25T00:00:02.672Z,989.49
2016-05-25T00:01:02.675Z,989.5
2016-05-25T00:02:02.661Z,989.5
2016-05-25T00:03:02.664Z,989.48
2016-05-25T00:04:02.683Z,989.53
2016-05-25T00:05:02.670Z,989.5
2016-05-25T00:06:02.673Z,989.45
2016-05-25T00:07:02.675Z,989.47
2016-05-25T00:08:02.678Z,989.47
2016-05-25T00:09:02.666Z,989.48
2016-05-25T00:10:02.668Z,989.46
2016-05-25T00:11:02.671Z,989.47
2016-05-25T00:12:02.673Z,989.47
2016-05-25T00:13:02.676Z,989.45
2016-05-25T00:14:02.679Z,989.48
2016-05-25T00:15:02.665Z,989.51
2016-05-25T00:16:02.685Z,989.48
2016-05-25T00:17:02.718Z,989.45
2016-05-25T00:18:02.674Z,989.46
2016-05-25T00:19:02.676Z,989.41
2016-05-25T00:20:02.664Z,989.38
2016-05-25T00:21:02.667Z,989.37
2016-05-25T00:22:02.684Z,989.39
2016-05-25T00:23:02.672Z,989.31
2016-05-25T00:24:02.659Z,989.37
2016-05-25T00:25:02.662Z,989.32
2016-05-25T00:26:02.664Z,989.31
2016-05-25T00:27:02.667Z,989.32
2016-05-25T00:28:02.670Z,989.35
2016-05-25T00:29:02.673Z,989.36
2016-05-25T00:30:02.675Z,989.33
2016-05-25T00:31:02.662Z,989.29
2016-05-25T00:32:02.664Z,989.29
2016-05-25T00:33:02.667Z,989.28
2016-05-25T00:34:02.670Z,989.27
2016-05-25T00:35:02.672Z,989.28
2016-05-25T00:36:02.675Z,989.26
2016-05-25T00:37:02.662Z,989.25
2016-05-25T00:38:02.666Z,989.26
2016-05-25T00:39:02.669Z,989.19
2016-05-25T00:40:02.671Z,989.2
2016-05-25T00:41:02.674Z,989.2
2016-05-25T00:42:02.676Z,989.19
2016-05-25T00:43:02.663Z,989.16
2016-05-25T00:44:02.665Z,989.15
2016-05-25T00:45:02.684Z,989.16
2016-05-25T00:46:02.671Z,989.14
2016-05-25T00:47:02.674Z,989.13
2016-05-25T00:48:02.677Z,989.09
2016-05-25T00:49:02.695Z,989.11
2016-05-25T00:50:02.666Z,989.07
2016-05-25T00:51:02.668Z,989.08
2016-05-25T00:52:02.671Z,989.07
2016-05-25T00:53:02.690Z,989.1
2016-05-25T00:54:02.676Z,989.09
2016-05-25T00:55:02.680Z,989.04
2016-05-25T00:56:02.667Z,989.07
2016-05-25T00:57:02.684Z,989.07
2016-05-25T00:58:02.672Z,989.07
2016-05-25T00:59:02.675Z,989.05
2016-05-25T01:00:02.678Z,989.05
2016-05-25T01:01:02.680Z,989.07
2016-05-25T01:02:02.683Z,989.05
2016-05-25T01:03:02.686Z,989.03
2016-05-25T01:04:02.672Z,989.05
2016-05-25T01:05:02.675Z,989
2016-05-25T01:06:02.677Z,988.98
2016-05-25T01:07:02.680Z,988.99
2016-05-25T01:08:02.683Z,988.99
2016-05-25T01:09:02.671Z,988.93
2016-05-25T01:10:02.674Z,988.92
2016-05-25T01:11:02.676Z,988.89
2016-05-25T01:12:02.679Z,988.89
2016-05-25T01:13:02.681Z,988.94
2016-05-25T01:14:02.684Z,988.87
2016-05-25T01:15:02.671Z,988.89
2016-05-25T01:16:02.673Z,988.88
2016-05-25T01:17:02.676Z,988.86
2016-05-25T01:18:02.679Z,988.88
2016-05-25T01:19:02.682Z,988.82
2016-05-25T01:20:02.668Z,988.87
2016-05-25T01:21:02.671Z,988.84
2016-05-25T01:22:02.674Z,988.8
2016-05-25T01:23:02.676Z,988.86
2016-05-25T01:24:02.679Z,988.77
2016-05-25T01:25:02.682Z,988.8
2016-05-25T01:26:02.669Z,988.8
2016-05-25T01:27:02.673Z,988.78
2016-05-25T01:28:02.675Z,988.75
2016-05-25T01:29:02.678Z,988.78
2016-05-25T01:30:02.680Z,988.85
2016-05-25T01:31:02.683Z,988.78
2016-05-25T01:32:02.686Z,988.79
2016-05-25T01:33:02.672Z,988.79
2016-05-25T01:34:02.675Z,988.77
2016-05-25T01:35:02.678Z,988.82
2016-05-25T01:36:02.680Z,988.8
2016-05-25T01:37:02.683Z,988.77
2016-05-25T01:38:02.669Z,988.76
2016-05-25T01:39:02.672Z,988.73
2016-05-25T01:40:02.676Z,988.76
2016-05-25T01:41:02.678Z,988.75
2016-05-25T01:42:02.681Z,988.76
2016-05-25T01:43:02.683Z,988.77
2016-05-25T01:44:02.671Z,988.78
2016-05-25T01:45:02.689Z,988.71
2016-05-25T01:46:02.676Z,988.71
2016-05-25T01:47:02.679Z,988.74
2016-05-25T01:48:02.682Z,988.75
2016-05-25T01:49:02.685Z,988.71
2016-05-25T01:50:02.687Z,988.72
2016-05-25T01:51:02.673Z,988.68
2016-05-25T01:52:02.677Z,988.72
2016-05-25T01:53:02.679Z,988.74
2016-05-25T01:54:02.682Z,988.71
2016-05-25T01:55:02.684Z,988.69
2016-05-25T01:56:02.687Z,988.68
2016-05-25T01:57:02.690Z,988.72
2016-05-25T01:58:02.677Z,988.67
2016-05-25T01:59:02.680Z,988.68
2016-05-25T02:00:02.683Z,988.69
2016-05-25T02:01:02.686Z,988.76
2016-05-25T02:02:02.829Z,988.7
2016-05-25T02:03:02.691Z,988.69
2016-05-25T02:04:02.678Z,988.7
2016-05-25T02:05:02.680Z,988.69
2016-05-25T02:06:02.683Z,988.66
2016-05-25T02:07:02.686Z,988.64
2016-05-25T02:08:02.688Z,988.64
2016-05-25T02:09:02.691Z,988.6
2016-05-25T02:10:02.710Z,988.6
2016-05-25T02:11:02.681Z,988.61
2016-05-25T02:12:02.684Z,988.63
2016-05-25T02:13:02.686Z,988.63
2016-05-25T02:14:02.689Z,988.64
2016-05-25T02:15:02.691Z,988.58
2016-05-25T02:16:02.679Z,988.65
2016-05-25T02:17:02.681Z,988.7
2016-05-25T02:18:02.684Z,988.7
2016-05-25T02:19:02.687Z,988.67
2016-05-25T02:20:02.690Z,988.67
2016-05-25T02:21:02.692Z,988.66
2016-05-25T02:22:02.679Z,988.7
2016-05-25T02:23:02.682Z,988.66
2016-05-25T02:24:02.685Z,988.64
2016-05-25T02:25:02.703Z,988.69
2016-05-25T02:26:02.690Z,988.66
2016-05-25T02:27:02.692Z,988.67
2016-05-25T02:28:02.695Z,988.64
2016-05-25T02:29:02.681Z,988.69
2016-05-25T02:30:02.684Z,988.67
2016-05-25T02:31:02.687Z,988.71
2016-05-25T02:32:03.175Z,988.7
2016-05-25T02:33:02.693Z,988.69
2016-05-25T02:34:02.696Z,988.68
2016-05-25T02:35:02.698Z,988.66
2016-05-25T02:36:02.701Z,988.68
2016-05-25T02:37:02.688Z,988.66
2016-05-25T02:38:02.691Z,988.69
2016-05-25T02:39:02.693Z,988.69
2016-05-25T02:40:02.712Z,988.65
2016-05-25T02:41:02.699Z,988.68
2016-05-25T02:42:02.702Z,988.69
2016-05-25T02:43:02.689Z,988.71
2016-05-25T02:44:02.691Z,988.7
2016-05-25T02:45:02.694Z,988.64
2016-05-25T02:46:02.697Z,988.68
2016-05-25T02:47:02.699Z,988.65
2016-05-25T02:48:02.702Z,988.66
2016-05-25T02:49:02.704Z,988.68
2016-05-25T02:50:02.692Z,988.69
2016-05-25T02:51:02.696Z,988.69
2016-05-25T02:52:02.697Z,988.69
2016-05-25T02:53:02.701Z,988.7
2016-05-25T02:54:02.703Z,988.71
2016-05-25T02:55:02.687Z,988.75
2016-05-25T02:56:02.690Z,988.73
2016-05-25T02:57:02.693Z,988.76
2016-05-25T02:58:02.695Z,988.7
2016-05-25T02:59:02.698Z,988.75
2016-05-25T03:00:02.684Z,988.73
2016-05-25T03:01:02.687Z,988.77
2016-05-25T03:02:02.690Z,988.77
2016-05-25T03:03:02.709Z,988.72
2016-05-25T03:04:02.695Z,988.77
2016-05-25T03:05:02.698Z,988.77
2016-05-25T03:06:03.185Z,988.78
2016-05-25T03:07:02.689Z,988.79
2016-05-25T03:08:02.691Z,988.83
2016-05-25T03:09:02.694Z,988.79
2016-05-25T03:10:02.696Z,988.82
2016-05-25T03:11:02.699Z,988.8
2016-05-25T03:12:02.685Z,988.81
2016-05-25T03:13:02.689Z,988.84
2016-05-25T03:14:02.691Z,988.82
2016-05-25T03:15:02.694Z,988.81
2016-05-25T03:16:02.696Z,988.85
2016-05-25T03:17:03.121Z,988.81
2016-05-25T03:18:02.686Z,988.8
2016-05-25T03:19:02.689Z,988.78
2016-05-25T03:20:02.691Z,988.8
2016-05-25T03:21:02.694Z,988.75
2016-05-25T03:22:02.697Z,988.79
2016-05-25T03:23:02.685Z,988.77
2016-05-25T03:24:02.687Z,988.8
2016-05-25T03:25:02.690Z,988.78
2016-05-25T03:26:02.693Z,988.78
2016-05-25T03:27:02.696Z,988.75
2016-05-25T03:28:02.698Z,988.74
2016-05-25T03:29:02.685Z,988.71
2016-05-25T03:30:02.687Z,988.73
2016-05-25T03:31:02.690Z,988.7
2016-05-25T03:32:02.693Z,988.7
2016-05-25T03:33:02.695Z,988.71
2016-05-25T03:34:02.698Z,988.75
2016-05-25T03:35:02.686Z,988.72
2016-05-25T03:36:02.688Z,988.72
2016-05-25T03:37:02.691Z,988.73
2016-05-25T03:38:02.694Z,988.77
2016-05-25T03:39:02.696Z,988.74
2016-05-25T03:40:02.699Z,988.77
2016-05-25T03:41:02.686Z,988.75
2016-05-25T03:42:02.688Z,988.82
2016-05-25T03:43:02.691Z,988.79
2016-05-25T03:44:02.694Z,988.81
2016-05-25T03:45:02.696Z,988.81
2016-05-25T03:46:02.683Z,988.8
2016-05-25T03:47:02.983Z,988.79
2016-05-25T03:48:02.689Z,988.79
2016-05-25T03:49:02.692Z,988.78
2016-05-25T03:50:02.694Z,988.77
2016-05-25T03:51:02.697Z,988.81
2016-05-25T03:52:02.699Z,988.79
2016-05-25T03:53:02.687Z,988.78
2016-05-25T03:54:02.705Z,988.79
2016-05-25T03:55:02.692Z,988.79
2016-05-25T03:56:02.696Z,988.77
2016-05-25T03:57:02.698Z,988.76
2016-05-25T03:58:02.701Z,988.75
2016-05-25T03:59:02.688Z,988.75
2016-05-25T04:00:02.691Z,988.72
2016-05-25T04:01:02.693Z,988.75
2016-05-25T04:02:02.695Z,988.74
2016-05-25T04:03:02.699Z,988.73
2016-05-25T04:04:02.701Z,988.74
2016-05-25T04:05:02.704Z,988.7
2016-05-25T04:06:02.691Z,988.69
2016-05-25T04:07:02.709Z,988.72
2016-05-25T04:08:02.695Z,988.72
2016-05-25T04:09:02.715Z,988.72
2016-05-25T04:10:02.686Z,988.71
2016-05-25T04:11:02.704Z,988.71
2016-05-25T04:12:02.691Z,988.72
2016-05-25T04:13:02.694Z,988.76
2016-05-25T04:14:02.697Z,988.73
2016-05-25T04:15:02.700Z,988.75
2016-05-25T04:16:02.702Z,988.77
2016-05-25T04:17:02.924Z,988.77
2016-05-25T04:18:02.691Z,988.73
2016-05-25T04:19:02.694Z,988.75
2016-05-25T04:20:02.720Z,988.72
2016-05-25T04:21:02.747Z,988.72
2016-05-25T04:22:02.773Z,988.71
2016-05-25T04:23:02.800Z,988.74
2016-05-25T04:24:02.826Z,988.7
2016-05-25T04:25:02.837Z,988.75
2016-05-25T04:26:02.834Z,988.77
2016-05-25T04:27:02.845Z,988.77
2016-05-25T04:28:02.856Z,988.78
2016-05-25T04:29:02.867Z,988.8
2016-05-25T04:30:03.529Z,988.82
2016-05-25T04:31:02.879Z,988.86
2016-05-25T04:32:03.228Z,988.85
2016-05-25T04:33:02.874Z,988.84
2016-05-25T04:34:02.880Z,988.84
2016-05-25T04:35:04.681Z,988.85
2016-05-25T04:36:02.871Z,988.85
2016-05-25T04:37:02.876Z,988.84
2016-05-25T04:38:02.879Z,988.86
2016-05-25T04:39:02.884Z,988.9
2016-05-25T04:40:03.747Z,988.84
2016-05-25T04:41:02.874Z,988.87
2016-05-25T04:42:02.878Z,988.83
2016-05-25T04:43:02.881Z,988.86
2016-05-25T04:44:02.883Z,988.86
2016-05-25T04:45:02.887Z,988.84
2016-05-25T04:46:02.889Z,988.84
2016-05-25T04:47:03.204Z,988.82
2016-05-25T04:48:02.879Z,988.86
2016-05-25T04:49:02.881Z,988.86
2016-05-25T04:50:02.884Z,988.83
2016-05-25T04:51:02.887Z,988.82
2016-05-25T04:52:02.889Z,988.83
2016-05-25T04:53:02.876Z,988.84
2016-05-25T04:54:02.878Z,988.84
2016-05-25T04:55:02.898Z,988.83
2016-05-25T04:56:02.884Z,988.83
2016-05-25T04:57:02.886Z,988.81
2016-05-25T04:58:02.874Z,988.84
2016-05-25T04:59:02.877Z,988.86
2016-05-25T05:00:02.880Z,988.82
2016-05-25T05:01:02.883Z,988.84
2016-05-25T05:02:02.885Z,988.84
2016-05-25T05:03:02.888Z,988.83
2016-05-25T05:04:02.875Z,988.89
2016-05-25T05:05:02.877Z,988.81
2016-05-25T05:06:02.880Z,988.88
2016-05-25T05:07:02.882Z,988.89
2016-05-25T05:08:02.885Z,988.87
2016-05-25T05:09:02.888Z,988.86
2016-05-25T05:10:02.890Z,988.9
2016-05-25T05:11:02.878Z,988.92
2016-05-25T05:12:02.881Z,988.9
2016-05-25T05:13:02.884Z,988.93
2016-05-25T05:14:02.886Z,988.89
2016-05-25T05:15:02.904Z,988.88
2016-05-25T05:16:02.876Z,988.87
2016-05-25T05:17:02.879Z,988.9
2016-05-25T05:18:02.881Z,988.93
2016-05-25T05:19:02.884Z,988.93
2016-05-25T05:20:02.886Z,988.92
2016-05-25T05:21:02.890Z,988.98
2016-05-25T05:22:02.892Z,988.97
2016-05-25T05:23:02.879Z,989
2016-05-25T05:24:02.881Z,988.98
2016-05-25T05:25:02.884Z,989
2016-05-25T05:26:02.887Z,989.04
2016-05-25T05:27:02.890Z,989.05
2016-05-25T05:28:02.877Z,989.07
2016-05-25T05:29:02.895Z,989.08
2016-05-25T05:30:02.882Z,989.02
2016-05-25T05:31:02.885Z,989.04
2016-05-25T05:32:02.888Z,989.03
2016-05-25T05:33:02.891Z,989.05
2016-05-25T05:34:02.893Z,989.04
2016-05-25T05:35:02.880Z,989.1
2016-05-25T05:36:02.883Z,989.07
2016-05-25T05:37:02.886Z,989.14
2016-05-25T05:38:02.888Z,989.15
2016-05-25T05:39:02.891Z,989.15
2016-05-25T05:40:02.893Z,989.15
2016-05-25T05:41:02.880Z,989.2
2016-05-25T05:42:02.899Z,989.21
2016-05-25T05:43:02.885Z,989.21
2016-05-25T05:44:02.888Z,989.21
2016-05-25T05:45:02.890Z,989.24
2016-05-25T05:46:02.894Z,989.18
2016-05-25T05:47:02.896Z,989.18
2016-05-25T05:48:02.899Z,989.16
2016-05-25T05:49:02.887Z,989.13
2016-05-25T05:50:02.889Z,989.16
2016-05-25T05:51:03.361Z,989.16
2016-05-25T05:52:02.895Z,989.15
2016-05-25T05:53:02.897Z,989.13
2016-05-25T05:54:02.900Z,989.17
2016-05-25T05:55:02.902Z,989.17
2016-05-25T05:56:04.406Z,989.13
2016-05-25T05:57:05.892Z,989.13
2016-05-25T05:58:02.895Z,989.13
2016-05-25T05:59:02.898Z,989.16
2016-05-25T06:00:02.900Z,989.13
2016-05-25T06:01:04.450Z,989.12
2016-05-25T06:02:03.015Z,989.12
2016-05-25T06:03:02.908Z,989.09
2016-05-25T06:04:02.896Z,989.1
2016-05-25T06:05:02.898Z,989.09
2016-05-25T06:06:02.901Z,989.12
2016-05-25T06:07:02.919Z,989.15
2016-05-25T06:08:02.906Z,989.14
2016-05-25T06:09:02.910Z,989.2
2016-05-25T06:10:02.912Z,989.23
2016-05-25T06:11:02.915Z,989.27
2016-05-25T06:12:02.902Z,989.3
2016-05-25T06:13:02.904Z,989.33
2016-05-25T06:14:02.907Z,989.32
2016-05-25T06:15:02.909Z,989.31
2016-05-25T06:16:02.912Z,989.32
2016-05-25T06:17:03.181Z,989.36
2016-05-25T06:18:02.901Z,989.39
2016-05-25T06:19:02.905Z,989.38
2016-05-25T06:20:02.907Z,989.41
2016-05-25T06:21:02.909Z,989.41
2016-05-25T06:22:02.913Z,989.4
2016-05-25T06:23:02.915Z,989.43
2016-05-25T06:24:02.918Z,989.47
2016-05-25T06:25:02.906Z,989.42
2016-05-25T06:26:02.908Z,989.43
2016-05-25T06:27:02.911Z,989.43
2016-05-25T06:28:02.913Z,989.43
2016-05-25T06:29:02.916Z,989.44
2016-05-25T06:30:02.918Z,989.47
2016-05-25T06:31:02.921Z,989.48
2016-05-25T06:32:02.908Z,989.45
2016-05-25T06:33:02.911Z,989.48
2016-05-25T06:34:02.914Z,989.5
2016-05-25T06:35:02.917Z,989.45
2016-05-25T06:36:02.919Z,989.44
2016-05-25T06:37:02.922Z,989.46
2016-05-25T06:38:02.925Z,989.44
2016-05-25T06:39:02.927Z,989.41
2016-05-25T06:40:02.914Z,989.45
2016-05-25T06:41:02.916Z,989.42
2016-05-25T06:42:02.920Z,989.46
2016-05-25T06:43:02.922Z,989.44
2016-05-25T06:44:02.925Z,989.45
2016-05-25T06:45:02.927Z,989.42
2016-05-25T06:46:02.930Z,989.44
2016-05-25T06:47:03.104Z,989.47
2016-05-25T06:48:02.920Z,989.43
2016-05-25T06:49:02.938Z,989.4
2016-05-25T06:50:02.925Z,989.44
2016-05-25T06:51:02.929Z,989.46
2016-05-25T06:52:02.931Z,989.5
2016-05-25T06:53:02.933Z,989.46
2016-05-25T06:54:02.937Z,989.49
2016-05-25T06:55:02.939Z,989.5
2016-05-25T06:56:02.942Z,989.47
2016-05-25T06:57:02.945Z,989.5
2016-05-25T06:58:02.947Z,989.46
2016-05-25T06:59:02.934Z,989.51
2016-05-25T07:00:02.936Z,989.53
2016-05-25T07:01:02.955Z,989.48
2016-05-25T07:02:03.005Z,989.45
2016-05-25T07:03:02.945Z,989.48
2016-05-25T07:04:02.947Z,989.49
2016-05-25T07:05:02.950Z,989.51
2016-05-25T07:06:02.953Z,989.52
2016-05-25T07:07:02.955Z,989.43
2016-05-25T07:08:02.943Z,989.46
2016-05-25T07:09:02.961Z,989.42
2016-05-25T07:10:02.948Z,989.41
2016-05-25T07:11:02.951Z,989.43
2016-05-25T07:12:02.954Z,989.44
2016-05-25T07:13:02.956Z,989.44
2016-05-25T07:14:02.959Z,989.46
2016-05-25T07:15:02.962Z,989.46
2016-05-25T07:16:02.964Z,989.43
2016-05-25T07:17:02.967Z,989.46
2016-05-25T07:18:02.970Z,989.48
2016-05-25T07:19:02.973Z,989.51
2016-05-25T07:20:02.975Z,989.54
2016-05-25T07:21:02.978Z,989.53
2016-05-25T07:22:02.965Z,989.49
2016-05-25T07:23:02.968Z,989.47
2016-05-25T07:24:02.970Z,989.5
2016-05-25T07:25:02.973Z,989.47
2016-05-25T07:26:02.975Z,989.48
2016-05-25T07:27:02.978Z,989.45
2016-05-25T07:28:02.981Z,989.45
2016-05-25T07:29:02.983Z,989.47
2016-05-25T07:30:02.986Z,989.51
2016-05-25T07:31:02.973Z,989.52
2016-05-25T07:32:02.976Z,989.53
2016-05-25T07:33:02.978Z,989.53
2016-05-25T07:34:02.981Z,989.52
2016-05-25T07:35:02.984Z,989.55
2016-05-25T07:36:02.986Z,989.51
2016-05-25T07:37:02.990Z,989.54
2016-05-25T07:38:02.992Z,989.56
2016-05-25T07:39:02.995Z,989.55
2016-05-25T07:40:02.997Z,989.53
2016-05-25T07:41:03.000Z,989.53
2016-05-25T07:42:02.987Z,989.57
2016-05-25T07:43:02.990Z,989.54
2016-05-25T07:44:02.993Z,989.55
2016-05-25T07:45:02.996Z,989.54
2016-05-25T07:46:02.998Z,989.53
2016-05-25T07:47:03.094Z,989.51
2016-05-25T07:48:03.004Z,989.52
2016-05-25T07:49:03.006Z,989.47
2016-05-25T07:50:03.010Z,989.47
2016-05-25T07:51:03.012Z,989.41
2016-05-25T07:52:03.015Z,989.35
2016-05-25T07:53:03.017Z,989.38
2016-05-25T07:54:03.004Z,989.39
2016-05-25T07:55:03.038Z,989.41
2016-05-25T07:56:03.026Z,989.42
2016-05-25T07:57:03.028Z,989.43
2016-05-25T07:58:03.014Z,989.38
2016-05-25T07:59:03.034Z,989.47
2016-05-25T08:00:03.020Z,989.39
2016-05-25T08:01:03.022Z,989.44
2016-05-25T08:02:03.025Z,989.46
2016-05-25T08:03:03.028Z,989.44
2016-05-25T08:04:03.031Z,989.45
2016-05-25T08:05:03.034Z,989.46
2016-05-25T08:06:03.036Z,989.5
2016-05-25T08:07:03.039Z,989.48
2016-05-25T08:08:03.026Z,989.5
2016-05-25T08:09:03.028Z,989.54
2016-05-25T08:10:03.031Z,989.55
2016-05-25T08:11:03.034Z,989.54
2016-05-25T08:12:03.037Z,989.53
2016-05-25T08:13:03.039Z,989.52
2016-05-25T08:14:03.041Z,989.52
2016-05-25T08:15:03.044Z,989.58
2016-05-25T08:16:03.047Z,989.54
2016-05-25T08:17:03.050Z,989.55
2016-05-25T08:18:03.053Z,989.5
2016-05-25T08:19:03.055Z,989.53
2016-05-25T08:20:03.058Z,989.5
2016-05-25T08:21:03.061Z,989.51
2016-05-25T08:22:03.063Z,989.51
2016-05-25T08:23:03.066Z,989.49
2016-05-25T08:24:03.069Z,989.47
2016-05-25T08:25:03.071Z,989.48
2016-05-25T08:26:03.059Z,989.48
2016-05-25T08:27:03.061Z,989.52
2016-05-25T08:28:03.064Z,989.5
2016-05-25T08:29:03.082Z,989.53
2016-05-25T08:30:03.070Z,989.52
2016-05-25T08:31:03.072Z,989.55
2016-05-25T08:32:03.075Z,989.58
2016-05-25T08:33:03.078Z,989.59
2016-05-25T08:34:03.096Z,989.53
2016-05-25T08:35:03.083Z,989.56
2016-05-25T08:36:03.086Z,989.57
2016-05-25T08:37:03.088Z,989.58
2016-05-25T08:38:03.092Z,989.51
2016-05-25T08:39:03.094Z,989.53
2016-05-25T08:40:03.097Z,989.53
2016-05-25T08:41:03.099Z,989.47
2016-05-25T08:42:03.102Z,989.48
2016-05-25T08:43:03.120Z,989.48
2016-05-25T08:44:03.107Z,989.5
2016-05-25T08:45:03.125Z,989.5
2016-05-25T08:46:03.113Z,989.5
2016-05-25T08:47:03.115Z,989.44
2016-05-25T08:48:03.118Z,989.53
2016-05-25T08:49:03.121Z,989.51
2016-05-25T08:50:03.107Z,989.51
2016-05-25T08:51:03.110Z,989.57
2016-05-25T08:52:03.113Z,989.58
2016-05-25T08:53:03.116Z,989.58
2016-05-25T08:54:03.118Z,989.58
2016-05-25T08:55:03.121Z,989.58
2016-05-25T08:56:03.124Z,989.56
2016-05-25T08:57:03.126Z,989.56
2016-05-25T08:58:03.129Z,989.55
2016-05-25T08:59:03.132Z,989.56
2016-05-25T09:00:03.135Z,989.56
2016-05-25T09:01:03.137Z,989.56
2016-05-25T09:02:03.687Z,989.56
2016-05-25T09:03:03.143Z,989.57
2016-05-25T09:04:03.145Z,989.57
2016-05-25T09:05:03.147Z,989.57
2016-05-25T09:06:03.151Z,989.57
2016-05-25T09:07:03.153Z,989.53
2016-05-25T09:08:03.156Z,989.56
2016-05-25T09:09:03.159Z,989.54
2016-05-25T09:10:03.161Z,989.53
2016-05-25T09:11:03.164Z,989.56
2016-05-25T09:12:03.167Z,989.55
2016-05-25T09:13:03.170Z,989.6
2016-05-25T09:14:03.172Z,989.62
2016-05-25T09:15:03.175Z,989.61
2016-05-25T09:16:03.178Z,989.6
2016-05-25T09:17:03.462Z,989.61
2016-05-25T09:18:03.182Z,989.59
2016-05-25T09:19:03.186Z,989.5
2016-05-25T09:20:03.188Z,989.57
2016-05-25T09:21:03.191Z,989.54
2016-05-25T09:22:03.194Z,989.49
2016-05-25T09:23:03.197Z,989.57
2016-05-25T09:24:03.199Z,989.58
2016-05-25T09:25:03.202Z,989.53
2016-05-25T09:26:03.204Z,989.6
2016-05-25T09:27:03.207Z,989.63
2016-05-25T09:28:03.209Z,989.59
2016-05-25T09:29:03.212Z,989.63
2016-05-25T09:30:03.215Z,989.68
2016-05-25T09:31:03.218Z,989.65
2016-05-25T09:32:03.221Z,989.67
2016-05-25T09:33:03.223Z,989.68
2016-05-25T09:34:03.226Z,989.69
2016-05-25T09:35:03.229Z,989.68
2016-05-25T09:36:03.231Z,989.67
2016-05-25T09:37:03.234Z,989.72
2016-05-25T09:38:03.236Z,989.66
2016-05-25T09:39:03.240Z,989.7
2016-05-25T09:40:03.242Z,989.72
2016-05-25T09:41:03.244Z,989.73
2016-05-25T09:42:03.264Z,989.7
2016-05-25T09:43:03.392Z,989.7
2016-05-25T09:44:03.253Z,989.73
2016-05-25T09:45:03.255Z,989.7
2016-05-25T09:46:03.258Z,989.65
2016-05-25T09:47:03.261Z,989.71
2016-05-25T09:48:03.264Z,989.67
2016-05-25T09:49:03.282Z,989.67
2016-05-25T09:50:03.269Z,989.64
2016-05-25T09:51:03.272Z,989.64
2016-05-25T09:52:03.274Z,989.64
2016-05-25T09:53:04.480Z,989.62
2016-05-25T09:54:03.280Z,989.62
2016-05-25T09:55:03.282Z,989.62
2016-05-25T09:56:03.285Z,989.61
2016-05-25T09:57:03.287Z,989.61
2016-05-25T09:58:03.291Z,989.67
2016-05-25T09:59:03.293Z,989.72
2016-05-25T10:00:03.295Z,989.72
2016-05-25T10:01:03.298Z,989.74
2016-05-25T10:02:03.754Z,989.78
2016-05-25T10:03:03.304Z,989.75
2016-05-25T10:04:03.306Z,989.74
2016-05-25T10:05:03.325Z,989.7
2016-05-25T10:06:03.312Z,989.64
2016-05-25T10:07:03.330Z,989.64
2016-05-25T10:08:03.317Z,989.59
2016-05-25T10:09:03.320Z,989.55
2016-05-25T10:10:03.323Z,989.59
2016-05-25T10:11:03.325Z,989.59
2016-05-25T10:12:03.328Z,989.58
2016-05-25T10:13:03.331Z,989.59
2016-05-25T10:14:03.333Z,989.64
2016-05-25T10:15:03.336Z,989.61
2016-05-25T10:16:03.355Z,989.62
2016-05-25T10:17:03.358Z,989.62
2016-05-25T10:18:03.361Z,989.62
2016-05-25T10:19:03.363Z,989.66
2016-05-25T10:20:03.365Z,989.71
2016-05-25T10:21:03.352Z,989.74
2016-05-25T10:22:03.371Z,989.72
2016-05-25T10:23:03.374Z,989.73
2016-05-25T10:24:03.376Z,989.73
2016-05-25T10:25:03.380Z,989.71
2016-05-25T10:26:03.382Z,989.72
2016-05-25T10:27:03.384Z,989.71
2016-05-25T10:28:03.388Z,989.65
2016-05-25T10:29:03.390Z,989.66
2016-05-25T10:30:03.392Z,989.62
2016-05-25T10:31:03.442Z,989.6
2016-05-25T10:32:03.413Z,989.6
2016-05-25T10:33:03.401Z,989.64
2016-05-25T10:34:03.403Z,989.69
2016-05-25T10:35:03.406Z,989.65
2016-05-25T10:36:03.409Z,989.59
2016-05-25T10:37:03.411Z,989.6
2016-05-25T10:38:03.414Z,989.63
2016-05-25T10:39:03.432Z,989.63
2016-05-25T10:40:03.419Z,989.61
2016-05-25T10:41:03.422Z,989.62
2016-05-25T10:42:03.425Z,989.6
2016-05-25T10:43:03.443Z,989.6
2016-05-25T10:44:03.445Z,989.58
2016-05-25T10:45:03.447Z,989.58
2016-05-25T10:46:03.450Z,989.54
2016-05-25T10:47:03.453Z,989.55
2016-05-25T10:48:03.456Z,989.53
2016-05-25T10:49:03.459Z,989.5
2016-05-25T10:50:03.461Z,989.48
2016-05-25T10:51:03.480Z,989.5
2016-05-25T10:52:03.483Z,989.53
2016-05-25T10:53:03.486Z,989.53
2016-05-25T10:54:03.488Z,989.52
2016-05-25T10:55:03.491Z,989.54
2016-05-25T10:56:03.494Z,989.53
2016-05-25T10:57:03.496Z,989.56
2016-05-25T10:58:03.499Z,989.56
2016-05-25T10:59:03.517Z,989.52
2016-05-25T11:00:03.520Z,989.49
2016-05-25T11:01:03.523Z,989.51
2016-05-25T11:02:03.525Z,989.5
2016-05-25T11:03:03.529Z,989.47
2016-05-25T11:04:03.531Z,989.48
2016-05-25T11:05:03.549Z,989.54
2016-05-25T11:06:03.552Z,989.5
2016-05-25T11:07:03.539Z,989.49
2016-05-25T11:08:03.542Z,989.47
2016-05-25T11:09:03.559Z,989.48
2016-05-25T11:10:03.562Z,989.49
2016-05-25T11:11:03.565Z,989.48
2016-05-25T11:12:03.568Z,989.47
2016-05-25T11:13:03.570Z,989.44
2016-05-25T11:14:03.588Z,989.5
2016-05-25T11:15:03.591Z,989.53
2016-05-25T11:16:03.594Z,989.5
2016-05-25T11:17:03.597Z,989.48
2016-05-25T11:18:03.600Z,989.44
2016-05-25T11:19:03.603Z,989.42
2016-05-25T11:20:03.621Z,989.45
2016-05-25T11:21:03.623Z,989.49
2016-05-25T11:22:03.627Z,989.49
2016-05-25T11:23:03.629Z,989.43
2016-05-25T11:24:03.647Z,989.5
2016-05-25T11:25:03.634Z,989.47
2016-05-25T11:26:03.638Z,989.49
2016-05-25T11:27:03.655Z,989.48
2016-05-25T11:28:03.657Z,989.45
2016-05-25T11:29:03.660Z,989.43
2016-05-25T11:30:03.679Z,989.43
2016-05-25T11:31:03.665Z,989.34
2016-05-25T11:32:03.668Z,989.29
2016-05-25T11:33:03.687Z,989.37
2016-05-25T11:34:03.705Z,989.38
2016-05-25T11:35:03.693Z,989.4
2016-05-25T11:36:03.695Z,989.37
2016-05-25T11:37:03.697Z,989.36
2016-05-25T11:38:03.701Z,989.36
2016-05-25T11:39:03.718Z,989.39
2016-05-25T11:40:03.721Z,989.33
2016-05-25T11:41:03.724Z,989.38
2016-05-25T11:42:03.726Z,989.34
2016-05-25T11:43:03.729Z,989.32
2016-05-25T11:44:03.747Z,989.36
2016-05-25T11:45:03.734Z,989.37
2016-05-25T11:46:03.753Z,989.33
2016-05-25T11:47:03.756Z,989.32
2016-05-25T11:48:03.759Z,989.31
2016-05-25T11:49:03.761Z,989.29
2016-05-25T11:50:03.780Z,989.2
2016-05-25T11:51:03.782Z,989.18
2016-05-25T11:52:03.785Z,989.17
2016-05-25T11:53:03.788Z,989.15
2016-05-25T11:54:03.790Z,989.1
2016-05-25T11:55:03.793Z,989.09
2016-05-25T11:56:03.796Z,989.03
2016-05-25T11:57:03.798Z,988.94
2016-05-25T11:58:03.816Z,988.9
2016-05-25T11:59:03.819Z,988.96
2016-05-25T12:00:03.822Z,988.96
2016-05-25T12:01:03.824Z,988.94
2016-05-25T12:02:03.827Z,988.88
2016-05-25T12:03:03.830Z,988.8
2016-05-25T12:04:03.833Z,988.82
2016-05-25T12:05:03.835Z,988.79
2016-05-25T12:06:03.853Z,988.73
2016-05-25T12:07:03.856Z,988.74
2016-05-25T12:08:03.859Z,988.74
2016-05-25T12:09:03.846Z,988.75
2016-05-25T12:10:03.865Z,988.62
2016-05-25T12:11:03.867Z,988.6
2016-05-25T12:12:03.885Z,988.58
2016-05-25T12:13:03.873Z,988.63
2016-05-25T12:14:03.875Z,988.57
2016-05-25T12:15:03.878Z,988.59
2016-05-25T12:16:03.880Z,988.65
2016-05-25T12:17:03.883Z,988.59
2016-05-25T12:18:04.402Z,988.58
2016-05-25T12:19:03.905Z,988.58
2016-05-25T12:20:03.892Z,988.57
2016-05-25T12:21:03.894Z,988.57
2016-05-25T12:22:03.913Z,988.58
2016-05-25T12:23:03.916Z,988.57
2016-05-25T12:24:03.918Z,988.55
2016-05-25T12:25:03.921Z,988.56
2016-05-25T12:26:03.923Z,988.55
2016-05-25T12:27:03.926Z,988.51
2016-05-25T12:28:03.929Z,988.47
2016-05-25T12:29:03.932Z,988.52
2016-05-25T12:30:03.934Z,988.44
2016-05-25T12:31:03.937Z,988.46